createdAt,value
2023-02-12T00:00:43.600Z,0
2023-02-12T00:01:45.088Z,0
2023-02-12T00:02:45.795Z,0
2023-02-12T00:03:46.552Z,0
2023-02-12T00:05:17.835Z,0
2023-02-12T00:06:19.275Z,0
2023-02-12T00:07:19.912Z,0
2023-02-12T00:08:20.586Z,0
2023-02-12T00:09:21.325Z,0
2023-02-12T00:10:22.029Z,0
2023-02-12T00:11:22.626Z,0
2023-02-12T00:12:23.302Z,0
2023-02-12T00:13:23.974Z,0
2023-02-12T00:14:24.608Z,0
2023-02-12T00:15:25.871Z,0
2023-02-12T00:16:26.364Z,0
2023-02-12T00:17:27.742Z,0
2023-02-12T00:18:28.430Z,0
2023-02-12T00:19:29.097Z,0
2023-02-12T00:20:29.998Z,0
2023-02-12T00:21:30.462Z,0
2023-02-12T00:22:31.834Z,0
2023-02-12T00:23:32.422Z,0
2023-02-12T00:24:33.111Z,0
2023-02-12T00:25:33.857Z,0
2023-02-12T00:26:35.348Z,0
2023-02-12T00:27:36.001Z,0
2023-02-12T00:28:36.695Z,0
2023-02-12T00:29:37.323Z,0
2023-02-12T00:30:38.098Z,0
2023-02-12T00:31:38.844Z,0
2023-02-12T00:32:39.478Z,0
2023-02-12T00:33:40.185Z,0
2023-02-12T00:34:40.972Z,0
2023-02-12T00:35:41.795Z,0
2023-02-12T00:36:43.325Z,0
2023-02-12T00:37:44.019Z,0
2023-02-12T00:38:44.732Z,0
2023-02-12T00:39:45.326Z,0
2023-02-12T00:40:46.078Z,0
2023-02-12T00:42:17.485Z,0
2023-02-12T00:43:18.103Z,0
2023-02-12T00:44:18.769Z,0
2023-02-12T00:45:20.499Z,0
2023-02-12T00:46:21.284Z,0
2023-02-12T00:47:22.493Z,0
2023-02-12T00:48:23.208Z,0
2023-02-12T00:49:23.902Z,0
2023-02-12T00:50:24.470Z,0
2023-02-12T00:51:25.279Z,0
2023-02-12T00:52:25.852Z,0
2023-02-12T00:53:26.502Z,0
2023-02-12T00:54:27.156Z,0
2023-02-12T00:55:27.793Z,0
2023-02-12T00:56:29.279Z,0
2023-02-12T00:57:30.109Z,0
2023-02-12T00:58:31.306Z,0
2023-02-12T00:59:32.004Z,0
2023-02-12T01:00:32.616Z,0
2023-02-12T01:01:33.354Z,0
2023-02-12T01:02:34.459Z,0
2023-02-12T01:03:35.233Z,0
2023-02-12T01:04:36.003Z,0
2023-02-12T01:05:36.663Z,0
2023-02-12T01:06:38.326Z,0
2023-02-12T01:07:38.966Z,0
2023-02-12T01:08:39.731Z,0
2023-02-12T01:09:40.708Z,0
2023-02-12T01:10:41.339Z,0
2023-02-12T01:11:42.002Z,0
2023-02-12T01:12:42.653Z,0
2023-02-12T01:13:43.393Z,0
2023-02-12T01:14:44.124Z,0
2023-02-12T01:15:45.398Z,0
2023-02-12T01:17:17.144Z,0
2023-02-12T01:18:17.768Z,0
2023-02-12T01:19:18.402Z,0
2023-02-12T01:20:19.138Z,0
2023-02-12T01:21:19.938Z,0
2023-02-12T01:22:20.592Z,0
2023-02-12T01:23:21.236Z,0
2023-02-12T01:24:21.905Z,0
2023-02-12T01:25:22.699Z,0
2023-02-12T01:26:24.074Z,0
2023-02-12T01:27:24.774Z,0
2023-02-12T01:28:26.127Z,0
2023-02-12T01:29:26.758Z,0
2023-02-12T01:30:27.481Z,0
2023-02-12T01:31:28.308Z,0
2023-02-12T01:32:28.920Z,0
2023-02-12T01:33:29.697Z,0
2023-02-12T01:34:30.323Z,0
2023-02-12T01:35:30.945Z,0
2023-02-12T01:36:32.547Z,0
2023-02-12T01:37:33.223Z,0
2023-02-12T01:38:33.864Z,0
2023-02-12T01:39:34.536Z,0
2023-02-12T01:40:35.153Z,0
2023-02-12T01:41:35.871Z,0
2023-02-12T01:42:36.626Z,0
2023-02-12T01:43:37.262Z,0
2023-02-12T01:44:38.501Z,0
2023-02-12T01:45:39.106Z,0
2023-02-12T01:46:40.577Z,0
2023-02-12T01:47:41.247Z,0
2023-02-12T01:48:41.867Z,0
2023-02-12T01:49:42.522Z,0
2023-02-12T01:50:43.247Z,0
2023-02-12T01:51:43.837Z,0
2023-02-12T01:52:44.604Z,0
2023-02-12T01:53:45.237Z,0
2023-02-12T01:55:16.559Z,0
2023-02-12T01:56:17.166Z,0
2023-02-12T01:57:18.785Z,0
2023-02-12T01:58:19.551Z,0
2023-02-12T01:59:20.098Z,0
2023-02-12T02:00:20.843Z,0
2023-02-12T02:01:21.540Z,0
2023-02-12T02:02:22.159Z,0
2023-02-12T02:03:22.919Z,0
2023-02-12T02:04:23.596Z,0
2023-02-12T02:05:24.996Z,0
2023-02-12T02:06:25.797Z,0
2023-02-12T02:07:27.276Z,0
2023-02-12T02:08:27.961Z,0
2023-02-12T02:09:28.657Z,0
2023-02-12T02:10:29.264Z,0
2023-02-12T02:11:30.047Z,0
2023-02-12T02:12:31.259Z,0
2023-02-12T02:13:32.002Z,0
2023-02-12T02:14:32.700Z,0
2023-02-12T02:15:34.314Z,0
2023-02-12T02:16:36.015Z,0
2023-02-12T02:17:36.719Z,0
2023-02-12T02:18:38.295Z,0
2023-02-12T02:19:38.988Z,0
2023-02-12T02:20:39.689Z,0
2023-02-12T02:21:40.420Z,0
2023-02-12T02:22:41.074Z,0
2023-02-12T02:23:41.725Z,0
2023-02-12T02:24:42.334Z,0
2023-02-12T02:25:43.050Z,0
2023-02-12T02:26:44.480Z,0
2023-02-12T02:27:45.584Z,0
2023-02-12T02:29:16.517Z,0
2023-02-12T02:30:17.144Z,0
2023-02-12T02:31:18.010Z,0
2023-02-12T02:32:18.608Z,0
2023-02-12T02:33:19.253Z,0
2023-02-12T02:34:19.848Z,0
2023-02-12T02:35:20.415Z,0
2023-02-12T02:36:21.036Z,0
2023-02-12T02:37:22.370Z,0
2023-02-12T02:38:23.110Z,0
2023-02-12T02:39:23.768Z,0
2023-02-12T02:40:24.362Z,0
2023-02-12T02:41:25.012Z,0
2023-02-12T02:42:25.603Z,0
2023-02-12T02:43:26.281Z,0
2023-02-12T02:44:27.046Z,0
2023-02-12T02:45:28.329Z,0
2023-02-12T02:46:29.112Z,0
2023-02-12T02:47:30.409Z,0
2023-02-12T02:48:31.074Z,0
2023-02-12T02:49:31.810Z,0
2023-02-12T02:50:32.472Z,0
2023-02-12T02:51:33.193Z,0
2023-02-12T02:52:33.874Z,0
2023-02-12T02:53:34.550Z,0
2023-02-12T02:54:35.248Z,0
2023-02-12T02:55:36.005Z,0
2023-02-12T02:56:36.693Z,0
2023-02-12T02:57:38.340Z,0
2023-02-12T02:58:39.021Z,0
2023-02-12T02:59:39.806Z,0
2023-02-12T03:00:40.792Z,0
2023-02-12T03:01:41.425Z,0
2023-02-12T03:02:42.265Z,0
2023-02-12T03:03:42.932Z,0
2023-02-12T03:04:43.602Z,0
2023-02-12T03:05:44.309Z,0
2023-02-12T03:07:16.523Z,0
2023-02-12T03:08:17.224Z,0
2023-02-12T03:09:18.024Z,0
2023-02-12T03:10:18.776Z,0
2023-02-12T03:11:19.483Z,0
2023-02-12T03:12:20.208Z,0
2023-02-12T03:13:20.926Z,0
2023-02-12T03:14:21.574Z,0
2023-02-12T03:15:22.227Z,0
2023-02-12T03:16:23.895Z,0
2023-02-12T03:17:25.470Z,0
2023-02-12T03:18:26.103Z,0
2023-02-12T03:19:26.773Z,0
2023-02-12T03:20:27.521Z,0
2023-02-12T03:21:28.310Z,0
2023-02-12T03:22:29.022Z,0
2023-02-12T03:23:29.890Z,0
2023-02-12T03:24:30.586Z,0
2023-02-12T03:25:31.279Z,0
2023-02-12T03:26:31.952Z,0
2023-02-12T03:27:33.556Z,0
2023-02-12T03:28:34.438Z,0
2023-02-12T03:29:35.006Z,0
2023-02-12T03:30:35.739Z,0
2023-02-12T03:31:36.408Z,0
2023-02-12T03:32:37.148Z,0
2023-02-12T03:33:37.839Z,0
2023-02-12T03:34:38.546Z,0
2023-02-12T03:35:39.271Z,0
2023-02-12T03:36:39.890Z,0
2023-02-12T03:37:40.837Z,0
2023-02-12T03:38:42.422Z,0
2023-02-12T03:39:43.023Z,0
2023-02-12T03:40:43.650Z,0
2023-02-12T03:41:44.682Z,0
2023-02-12T03:43:15.757Z,0
2023-02-12T03:44:16.560Z,0
2023-02-12T03:45:17.129Z,0
2023-02-12T03:46:17.833Z,0
2023-02-12T03:47:18.987Z,0
2023-02-12T03:48:19.644Z,0
2023-02-12T03:49:20.416Z,0
2023-02-12T03:50:21.062Z,0
2023-02-12T03:51:21.817Z,0
2023-02-12T03:52:22.367Z,0
2023-02-12T03:53:23.027Z,0
2023-02-12T03:54:23.724Z,0
2023-02-12T03:55:24.374Z,0
2023-02-12T03:56:25.164Z,0
2023-02-12T03:57:26.477Z,0
2023-02-12T03:58:27.111Z,0
2023-02-12T03:59:27.740Z,0
2023-02-12T04:00:28.542Z,0
2023-02-12T04:01:29.382Z,0
2023-02-12T04:02:29.898Z,0
2023-02-12T04:03:30.616Z,0
2023-02-12T04:04:31.365Z,0
2023-02-12T04:05:32.005Z,0
2023-02-12T04:06:32.734Z,0
2023-02-12T04:07:34.010Z,0
2023-02-12T04:08:34.673Z,0
2023-02-12T04:09:35.367Z,0
2023-02-12T04:10:35.960Z,0
2023-02-12T04:11:36.767Z,0
2023-02-12T04:12:37.546Z,0
2023-02-12T04:13:38.233Z,0
2023-02-12T04:14:38.992Z,0
2023-02-12T04:15:40.484Z,0
2023-02-12T04:16:41.180Z,0
2023-02-12T04:17:42.506Z,0
2023-02-12T04:18:43.241Z,0
2023-02-12T04:19:44.339Z,0
2023-02-12T04:21:15.381Z,0
2023-02-12T04:22:15.989Z,0
2023-02-12T04:23:16.716Z,0
2023-02-12T04:24:17.372Z,0
2023-02-12T04:25:18.000Z,0
2023-02-12T04:26:18.680Z,0
2023-02-12T04:27:19.325Z,0
2023-02-12T04:28:20.983Z,0
2023-02-12T04:29:21.625Z,0
2023-02-12T04:30:22.377Z,0
2023-02-12T04:31:23.240Z,0
2023-02-12T04:32:23.739Z,0
2023-02-12T04:33:24.352Z,0
2023-02-12T04:34:25.061Z,0
2023-02-12T04:35:25.812Z,0
2023-02-12T04:36:26.456Z,0
2023-02-12T04:37:27.173Z,0
2023-02-12T04:38:28.793Z,0
2023-02-12T04:39:29.547Z,0
2023-02-12T04:40:30.283Z,0
2023-02-12T04:41:30.875Z,0
2023-02-12T04:42:31.627Z,0
2023-02-12T04:43:34.160Z,0
2023-02-12T04:44:32.939Z,0
2023-02-12T04:45:34.558Z,0
2023-02-12T04:46:35.292Z,0
2023-02-12T04:47:36.030Z,0
2023-02-12T04:48:37.300Z,0
2023-02-12T04:49:37.979Z,0
2023-02-12T04:50:38.785Z,0
2023-02-12T04:51:39.446Z,0
2023-02-12T04:52:40.146Z,0
2023-02-12T04:53:40.878Z,0
2023-02-12T04:54:41.604Z,0
2023-02-12T04:55:42.242Z,0
2023-02-12T04:56:42.929Z,0
2023-02-12T04:58:14.997Z,0
2023-02-12T04:59:15.702Z,0
2023-02-12T05:00:16.315Z,0
2023-02-12T05:01:17.185Z,0
2023-02-12T05:02:17.818Z,0
2023-02-12T05:03:18.446Z,0
2023-02-12T05:04:19.202Z,0
2023-02-12T05:05:20.066Z,0
2023-02-12T05:06:20.628Z,0
2023-02-12T05:07:21.373Z,0
2023-02-12T05:08:22.841Z,0
2023-02-12T05:09:23.596Z,0
2023-02-12T05:10:24.223Z,0
2023-02-12T05:11:24.933Z,0
2023-02-12T05:12:25.552Z,0
2023-02-12T05:13:26.890Z,0
2023-02-12T05:14:27.614Z,0
2023-02-12T05:15:28.323Z,0
2023-02-12T05:16:28.996Z,0
2023-02-12T05:17:29.664Z,0
2023-02-12T05:18:31.071Z,0
2023-02-12T05:19:31.828Z,0
2023-02-12T05:20:32.599Z,0
2023-02-12T05:21:33.307Z,0
2023-02-12T05:22:33.967Z,0
2023-02-12T05:23:34.650Z,0
2023-02-12T05:24:35.322Z,0
2023-02-12T05:25:36.094Z,0
2023-02-12T05:26:36.679Z,0
2023-02-12T05:27:37.319Z,0
2023-02-12T05:28:38.877Z,0
2023-02-12T05:29:39.587Z,0
2023-02-12T05:30:40.385Z,0
2023-02-12T05:31:41.285Z,0
2023-02-12T05:32:41.781Z,0
2023-02-12T05:33:42.362Z,0
2023-02-12T05:34:43.448Z,0
2023-02-12T05:36:14.517Z,0
2023-02-12T05:37:15.246Z,0
2023-02-12T05:38:16.463Z,0
2023-02-12T05:39:17.130Z,0
2023-02-12T05:40:17.732Z,0
2023-02-12T05:41:18.406Z,0
2023-02-12T05:42:19.120Z,0
2023-02-12T05:43:19.862Z,0
2023-02-12T05:44:20.620Z,0
2023-02-12T05:45:21.347Z,0
2023-02-12T05:46:22.214Z,0
2023-02-12T05:47:23.318Z,0
2023-02-12T05:48:24.981Z,0
2023-02-12T05:49:25.651Z,0
2023-02-12T05:50:26.296Z,0
2023-02-12T05:51:27.050Z,0
2023-02-12T05:52:27.850Z,0
2023-02-12T05:53:28.686Z,0
2023-02-12T05:54:29.238Z,0
2023-02-12T05:55:29.981Z,0
2023-02-12T05:56:30.650Z,0
2023-02-12T05:57:31.380Z,0
2023-02-12T05:58:32.980Z,0
2023-02-12T05:59:33.670Z,0
2023-02-12T06:00:34.361Z,0
2023-02-12T06:01:35.031Z,0
2023-02-12T06:02:35.858Z,0
2023-02-12T06:03:36.476Z,0
2023-02-12T06:04:37.109Z,0
2023-02-12T06:05:37.738Z,0
2023-02-12T06:06:38.303Z,0
2023-02-12T06:07:38.955Z,0
2023-02-12T06:08:40.525Z,0
2023-02-12T06:09:41.222Z,0
2023-02-12T06:10:41.902Z,0
2023-02-12T06:11:43.154Z,0
2023-02-12T06:13:14.164Z,0
2023-02-12T06:14:14.927Z,0
2023-02-12T06:15:15.538Z,0
2023-02-12T06:16:16.197Z,0
2023-02-12T06:17:17.445Z,0
2023-02-12T06:18:18.243Z,0
2023-02-12T06:19:19.877Z,0
2023-02-12T06:20:20.554Z,0
2023-02-12T06:21:21.171Z,4
2023-02-12T06:22:21.878Z,0
2023-02-12T06:23:22.641Z,4
2023-02-12T06:24:23.333Z,0
2023-02-12T06:25:24.158Z,0
2023-02-12T06:26:24.766Z,4
2023-02-12T06:27:25.490Z,4
2023-02-12T06:28:27.136Z,4
2023-02-12T06:29:27.641Z,4
2023-02-12T06:30:28.358Z,4
2023-02-12T06:31:29.289Z,8
2023-02-12T06:32:30.540Z,8
2023-02-12T06:33:31.286Z,8
2023-02-12T06:34:31.932Z,12
2023-02-12T06:35:32.620Z,16
2023-02-12T06:36:33.339Z,16
2023-02-12T06:37:34.061Z,20
2023-02-12T06:38:35.483Z,24
2023-02-12T06:39:36.157Z,24
2023-02-12T06:40:36.912Z,28
2023-02-12T06:41:37.561Z,28
2023-02-12T06:42:38.194Z,32
2023-02-12T06:43:38.927Z,32
2023-02-12T06:44:39.718Z,36
2023-02-12T06:45:40.696Z,36
2023-02-12T06:46:41.492Z,44
2023-02-12T06:48:13.311Z,44
2023-02-12T06:49:14.784Z,52
2023-02-12T06:50:15.382Z,56
2023-02-12T06:51:15.998Z,60
2023-02-12T06:52:16.679Z,60
2023-02-12T06:53:17.340Z,68
2023-02-12T06:54:18.077Z,72
2023-02-12T06:55:18.639Z,76
2023-02-12T06:56:19.378Z,80
2023-02-12T06:57:20.033Z,88
2023-02-12T06:58:21.516Z,92
2023-02-12T06:59:22.253Z,96
2023-02-12T07:00:23.806Z,104
2023-02-12T07:01:24.516Z,112
2023-02-12T07:02:25.126Z,120
2023-02-12T07:03:25.722Z,120
2023-02-12T07:04:26.561Z,128
2023-02-12T07:05:27.264Z,132
2023-02-12T07:06:27.925Z,140
2023-02-12T07:07:28.568Z,144
2023-02-12T07:08:29.287Z,152
2023-02-12T07:09:30.878Z,152
2023-02-12T07:10:31.603Z,152
2023-02-12T07:11:32.349Z,156
2023-02-12T07:12:32.967Z,160
2023-02-12T07:13:33.649Z,168
2023-02-12T07:14:34.416Z,176
2023-02-12T07:15:34.981Z,188
2023-02-12T07:16:36.548Z,196
2023-02-12T07:17:37.197Z,204
2023-02-12T07:18:38.765Z,208
2023-02-12T07:19:40.296Z,212
2023-02-12T07:20:41.172Z,224
2023-02-12T07:21:42.313Z,248
2023-02-12T07:23:13.409Z,252
2023-02-12T07:24:14.040Z,260
2023-02-12T07:25:14.814Z,272
2023-02-12T07:26:15.486Z,280
2023-02-12T07:27:16.168Z,292
2023-02-12T07:28:16.993Z,304
2023-02-12T07:29:18.464Z,320
2023-02-12T07:30:19.112Z,328
2023-02-12T07:31:20.007Z,340
2023-02-12T07:32:20.478Z,352
2023-02-12T07:33:21.191Z,360
2023-02-12T07:34:21.796Z,372
2023-02-12T07:35:22.528Z,384
2023-02-12T07:36:23.227Z,396
2023-02-12T07:37:23.924Z,396
2023-02-12T07:38:24.637Z,412
2023-02-12T07:39:25.970Z,428
2023-02-12T07:40:26.602Z,444
2023-02-12T07:41:27.262Z,452
2023-02-12T07:42:28.013Z,464
2023-02-12T07:43:29.468Z,480
2023-02-12T07:44:30.273Z,500
2023-02-12T07:45:31.061Z,512
2023-02-12T07:46:31.642Z,520
2023-02-12T07:47:33.018Z,536
2023-02-12T07:48:33.734Z,548
2023-02-12T07:49:35.282Z,548
2023-02-12T07:50:35.942Z,560
2023-02-12T07:51:36.697Z,576
2023-02-12T07:52:37.437Z,588
2023-02-12T07:53:38.149Z,604
2023-02-12T07:54:38.834Z,612
2023-02-12T07:55:39.472Z,620
2023-02-12T07:56:40.256Z,628
2023-02-12T07:57:40.931Z,640
2023-02-12T07:59:12.966Z,652
2023-02-12T08:00:13.695Z,660
2023-02-12T08:01:14.358Z,672
2023-02-12T08:02:15.214Z,680
2023-02-12T08:03:15.824Z,688
2023-02-12T08:04:16.590Z,696
2023-02-12T08:05:17.174Z,700
2023-02-12T08:06:17.916Z,704
2023-02-12T08:07:18.462Z,712
2023-02-12T08:08:19.086Z,720
2023-02-12T08:09:20.589Z,728
2023-02-12T08:10:21.225Z,736
2023-02-12T08:11:22.117Z,744
2023-02-12T08:12:23.259Z,752
2023-02-12T08:13:23.900Z,760
2023-02-12T08:14:24.566Z,768
2023-02-12T08:15:25.404Z,772
2023-02-12T08:16:26.248Z,780
2023-02-12T08:17:26.925Z,784
2023-02-12T08:18:28.289Z,788
2023-02-12T08:19:29.466Z,788
2023-02-12T08:20:30.179Z,784
2023-02-12T08:21:30.915Z,780
2023-02-12T08:22:31.559Z,772
2023-02-12T08:23:32.220Z,756
2023-02-12T08:24:32.965Z,736
2023-02-12T08:25:33.594Z,720
2023-02-12T08:26:34.298Z,708
2023-02-12T08:27:34.960Z,696
2023-02-12T08:28:35.879Z,684
2023-02-12T08:29:36.993Z,680
2023-02-12T08:30:37.749Z,664
2023-02-12T08:31:38.416Z,656
2023-02-12T08:32:39.002Z,644
2023-02-12T08:33:39.700Z,632
2023-02-12T08:34:40.639Z,608
2023-02-12T08:36:12.770Z,592
2023-02-12T08:37:14.184Z,584
2023-02-12T08:38:14.966Z,576
2023-02-12T08:39:15.613Z,572
2023-02-12T08:40:16.702Z,568
2023-02-12T08:41:19.209Z,560
2023-02-12T08:42:17.918Z,560
2023-02-12T08:43:18.607Z,556
2023-02-12T08:44:19.299Z,552
2023-02-12T08:45:19.891Z,556
2023-02-12T08:46:20.639Z,552
2023-02-12T08:47:21.946Z,552
2023-02-12T08:48:23.509Z,568
2023-02-12T08:49:24.232Z,572
2023-02-12T08:50:25.787Z,568
2023-02-12T08:51:26.388Z,568
2023-02-12T08:52:26.983Z,568
2023-02-12T08:53:27.651Z,572
2023-02-12T08:54:28.277Z,572
2023-02-12T08:55:28.899Z,576
2023-02-12T08:56:29.590Z,576
2023-02-12T08:57:30.189Z,572
2023-02-12T08:58:30.862Z,572
2023-02-12T08:59:31.511Z,572
2023-02-12T09:00:32.826Z,572
2023-02-12T09:01:33.621Z,576
2023-02-12T09:02:34.180Z,572
2023-02-12T09:03:34.617Z,576
2023-02-12T09:04:35.284Z,576
2023-02-12T09:05:35.906Z,576
2023-02-12T09:06:36.518Z,580
2023-02-12T09:07:37.221Z,580
2023-02-12T09:08:37.818Z,580
2023-02-12T09:09:39.431Z,584
2023-02-12T09:10:40.071Z,584
2023-02-12T09:12:11.557Z,584
2023-02-12T09:13:12.227Z,584
2023-02-12T09:14:13.282Z,588
2023-02-12T09:15:13.877Z,588
2023-02-12T09:16:14.583Z,588
2023-02-12T09:17:15.072Z,592
2023-02-12T09:18:15.653Z,592
2023-02-12T09:19:16.205Z,588
2023-02-12T09:20:16.677Z,588
2023-02-12T09:21:18.289Z,588
2023-02-12T09:22:18.759Z,592
2023-02-12T09:23:19.344Z,592
2023-02-12T09:24:20.093Z,596
2023-02-12T09:25:20.617Z,596
2023-02-12T09:26:21.146Z,596
2023-02-12T09:27:21.911Z,596
2023-02-12T09:28:22.812Z,600
2023-02-12T09:29:23.505Z,604
2023-02-12T09:30:24.899Z,604
2023-02-12T09:31:25.701Z,604
2023-02-12T09:32:26.089Z,604
2023-02-12T09:33:26.641Z,604
2023-02-12T09:34:27.431Z,604
2023-02-12T09:35:27.837Z,604
2023-02-12T09:36:29.218Z,608
2023-02-12T09:37:29.710Z,612
2023-02-12T09:38:30.330Z,612
2023-02-12T09:39:31.140Z,608
2023-02-12T09:40:32.383Z,612
2023-02-12T09:41:33.094Z,612
2023-02-12T09:42:33.582Z,616
2023-02-12T09:43:34.172Z,612
2023-02-12T09:44:34.937Z,616
2023-02-12T09:45:35.402Z,616
2023-02-12T09:46:35.960Z,616
2023-02-12T09:47:36.709Z,620
2023-02-12T09:48:37.207Z,616
2023-02-12T09:49:37.712Z,616
2023-02-12T09:50:39.351Z,620
2023-02-12T09:51:40.659Z,620
2023-02-12T09:53:11.303Z,624
2023-02-12T09:54:12.028Z,624
2023-02-12T09:55:12.695Z,628
2023-02-12T09:56:13.032Z,624
2023-02-12T09:57:13.498Z,628
2023-02-12T09:58:14.058Z,628
2023-02-12T09:59:14.612Z,628
2023-02-12T10:00:16.008Z,628
2023-02-12T10:01:16.541Z,628
2023-02-12T10:02:16.966Z,632
2023-02-12T10:03:17.477Z,632
2023-02-12T10:04:18.318Z,632
2023-02-12T10:05:18.850Z,636
2023-02-12T10:06:19.408Z,636
2023-02-12T10:07:20.063Z,640
2023-02-12T10:08:24.519Z,640
2023-02-12T10:09:20.982Z,636
2023-02-12T10:10:22.590Z,636
2023-02-12T10:11:23.123Z,640
2023-02-12T10:12:23.579Z,640
2023-02-12T10:13:24.198Z,640
2023-02-12T10:14:24.701Z,644
2023-02-12T10:15:25.281Z,644
2023-02-12T10:16:25.955Z,644
2023-02-12T10:17:27.483Z,648
2023-02-12T10:18:28.222Z,652
2023-02-12T10:19:28.691Z,652
2023-02-12T10:20:29.967Z,652
2023-02-12T10:21:30.459Z,652
2023-02-12T10:22:30.967Z,656
2023-02-12T10:23:31.667Z,652
2023-02-12T10:24:32.206Z,652
2023-02-12T10:25:32.761Z,656
2023-02-12T10:26:33.321Z,656
2023-02-12T10:27:33.905Z,660
2023-02-12T10:28:34.712Z,664
2023-02-12T10:29:35.165Z,668
2023-02-12T10:30:36.623Z,672
2023-02-12T10:31:37.847Z,672
2023-02-12T10:32:38.939Z,676
2023-02-12T10:33:39.897Z,680
2023-02-12T10:35:11.758Z,680
2023-02-12T10:36:13.229Z,684
2023-02-12T10:37:14.006Z,680
2023-02-12T10:38:14.681Z,684
2023-02-12T10:39:15.273Z,684
2023-02-12T10:40:16.786Z,680
2023-02-12T10:41:18.207Z,684
2023-02-12T10:42:18.842Z,684
2023-02-12T10:43:19.572Z,688
2023-02-12T10:44:20.260Z,688
2023-02-12T10:45:21.028Z,692
2023-02-12T10:46:22.338Z,692
2023-02-12T10:47:22.938Z,692
2023-02-12T10:48:24.244Z,692
2023-02-12T10:49:25.909Z,696
2023-02-12T10:50:27.475Z,696
2023-02-12T10:51:28.136Z,696
2023-02-12T10:52:28.808Z,696
2023-02-12T10:53:29.370Z,696
2023-02-12T10:54:31.036Z,700
2023-02-12T10:55:31.676Z,704
2023-02-12T10:56:32.800Z,704
2023-02-12T10:57:33.468Z,704
2023-02-12T10:58:34.943Z,708
2023-02-12T10:59:35.972Z,708
2023-02-12T11:00:36.937Z,716
2023-02-12T11:01:37.582Z,716
2023-02-12T11:02:38.092Z,720
2023-02-12T11:03:38.693Z,720
2023-02-12T11:04:39.809Z,724
2023-02-12T11:06:11.098Z,724
2023-02-12T11:07:11.711Z,728
2023-02-12T11:08:12.331Z,728
2023-02-12T11:09:12.936Z,732
2023-02-12T11:10:13.575Z,736
2023-02-12T11:11:14.860Z,740
2023-02-12T11:12:15.570Z,740
2023-02-12T11:13:16.853Z,740
2023-02-12T11:14:17.478Z,748
2023-02-12T11:15:18.088Z,748
2023-02-12T11:16:18.855Z,756
2023-02-12T11:17:20.453Z,756
2023-02-12T11:18:21.965Z,752
2023-02-12T11:19:23.469Z,760
2023-02-12T11:20:23.762Z,760
2023-02-12T11:21:25.205Z,764
2023-02-12T11:22:25.885Z,764
2023-02-12T11:23:27.398Z,764
2023-02-12T11:24:28.061Z,768
2023-02-12T11:25:29.438Z,772
2023-02-12T11:26:30.929Z,780
2023-02-12T11:27:31.576Z,776
2023-02-12T11:28:32.981Z,780
2023-02-12T11:29:34.190Z,780
2023-02-12T11:30:35.752Z,788
2023-02-12T11:31:37.135Z,788
2023-02-12T11:32:37.617Z,792
2023-02-12T11:33:38.264Z,796
2023-02-12T11:34:39.371Z,804
2023-02-12T11:36:11.239Z,808
2023-02-12T11:37:12.037Z,812
2023-02-12T11:38:12.691Z,816
2023-02-12T11:39:13.474Z,816
2023-02-12T11:40:14.078Z,820
2023-02-12T11:41:15.231Z,824
2023-02-12T11:42:15.803Z,828
2023-02-12T11:43:16.375Z,828
2023-02-12T11:44:17.023Z,828
2023-02-12T11:45:17.645Z,832
2023-02-12T11:46:18.244Z,836
2023-02-12T11:47:18.954Z,840
2023-02-12T11:48:20.297Z,844
2023-02-12T11:49:20.936Z,844
2023-02-12T11:50:21.692Z,852
2023-02-12T11:51:22.700Z,856
2023-02-12T11:52:23.328Z,856
2023-02-12T11:53:24.076Z,860
2023-02-12T11:54:24.727Z,864
2023-02-12T11:55:25.562Z,872
2023-02-12T11:56:26.222Z,876
2023-02-12T11:57:26.770Z,884
2023-02-12T11:58:28.509Z,892
2023-02-12T11:59:29.130Z,904
2023-02-12T12:00:29.906Z,912
2023-02-12T12:01:31.279Z,916
2023-02-12T12:02:31.972Z,928
2023-02-12T12:03:33.568Z,936
2023-02-12T12:04:34.263Z,944
2023-02-12T12:05:35.469Z,956
2023-02-12T12:06:36.099Z,968
2023-02-12T12:07:36.955Z,976
2023-02-12T12:08:38.530Z,992
2023-02-12T12:10:09.562Z,1004
2023-02-12T12:11:10.952Z,1016
2023-02-12T12:12:11.595Z,1036
2023-02-12T12:13:12.265Z,1044
2023-02-12T12:14:12.840Z,1060
2023-02-12T12:15:13.434Z,1076
2023-02-12T12:16:14.089Z,1100
2023-02-12T12:17:15.432Z,1120
2023-02-12T12:18:15.949Z,1136
2023-02-12T12:19:17.433Z,1148
2023-02-12T12:20:18.215Z,1164
2023-02-12T12:21:19.460Z,1176
2023-02-12T12:22:20.074Z,1188
2023-02-12T12:23:20.850Z,1204
2023-02-12T12:24:21.527Z,1220
2023-02-12T12:25:22.168Z,1236
2023-02-12T12:26:22.840Z,1256
2023-02-12T12:27:23.517Z,1276
2023-02-12T12:28:24.312Z,1296
2023-02-12T12:29:24.937Z,1316
2023-02-12T12:30:25.546Z,1328
2023-02-12T12:31:26.967Z,1348
2023-02-12T12:32:27.512Z,1356
2023-02-12T12:33:28.172Z,1376
2023-02-12T12:34:28.853Z,1396
2023-02-12T12:35:29.506Z,1416
2023-02-12T12:36:30.224Z,1428
2023-02-12T12:37:30.837Z,1444
2023-02-12T12:38:32.262Z,1464
2023-02-12T12:39:32.977Z,1480
2023-02-12T12:40:33.562Z,1500
2023-02-12T12:41:34.903Z,1524
2023-02-12T12:42:35.463Z,1548
2023-02-12T12:43:36.116Z,1576
2023-02-12T12:44:36.721Z,1600
2023-02-12T12:45:37.305Z,1632
2023-02-12T12:46:37.968Z,1692
2023-02-12T12:48:08.964Z,1712
2023-02-12T12:49:10.548Z,1732
2023-02-12T12:50:11.134Z,1760
2023-02-12T12:51:11.696Z,1784
2023-02-12T12:52:12.344Z,1816
2023-02-12T12:53:13.014Z,1852
2023-02-12T12:54:13.610Z,1872
2023-02-12T12:55:14.190Z,1900
2023-02-12T12:56:14.730Z,1932
2023-02-12T12:57:15.394Z,1976
2023-02-12T12:58:16.463Z,2016
2023-02-12T12:59:17.073Z,2056
2023-02-12T13:00:19.835Z,2084
2023-02-12T13:01:18.973Z,2112
2023-02-12T13:02:19.532Z,2152
2023-02-12T13:03:20.068Z,2192
2023-02-12T13:04:20.616Z,2228
2023-02-12T13:05:21.146Z,2264
2023-02-12T13:06:21.711Z,2288
2023-02-12T13:07:22.305Z,2312
2023-02-12T13:08:22.865Z,2348
2023-02-12T13:09:23.429Z,2380
2023-02-12T13:10:24.132Z,2420
2023-02-12T13:11:25.424Z,2452
2023-02-12T13:12:26.186Z,2476
2023-02-12T13:13:26.645Z,2516
2023-02-12T13:14:27.252Z,2552
2023-02-12T13:15:28.021Z,2580
2023-02-12T13:16:28.595Z,2600
2023-02-12T13:17:29.150Z,2620
2023-02-12T13:18:30.427Z,2664
2023-02-12T13:19:31.003Z,2756
2023-02-12T13:20:31.599Z,2808
2023-02-12T13:21:32.913Z,2840
2023-02-12T13:22:33.539Z,2876
2023-02-12T13:23:34.086Z,2924
2023-02-12T13:24:34.637Z,2964
2023-02-12T13:25:35.190Z,2996
2023-02-12T13:26:35.710Z,3016
2023-02-12T13:27:36.264Z,3060
2023-02-12T13:28:37.472Z,3152
2023-02-12T13:30:08.351Z,3184
2023-02-12T13:31:30.052Z,3212
2023-02-12T13:32:10.552Z,3260
2023-02-12T13:33:11.129Z,3296
2023-02-12T13:34:11.620Z,3348
2023-02-12T13:35:12.974Z,3372
2023-02-12T13:36:13.506Z,3396
2023-02-12T13:37:14.035Z,3428
2023-02-12T13:38:14.557Z,3548
2023-02-12T13:39:15.075Z,3768
2023-02-12T13:40:15.656Z,4232
2023-02-12T13:41:16.154Z,5004
2023-02-12T13:42:17.179Z,6300
2023-02-12T13:43:17.717Z,9724
2023-02-12T13:44:18.251Z,13156
2023-02-12T13:45:18.815Z,14592
2023-02-12T13:46:19.593Z,15456
2023-02-12T13:47:20.123Z,16192
2023-02-12T13:48:20.678Z,16896
2023-02-12T13:49:21.922Z,17760
2023-02-12T13:50:22.439Z,18144
2023-02-12T13:51:23.095Z,18496
2023-02-12T13:52:24.142Z,18624
2023-02-12T13:53:24.656Z,18592
2023-02-12T13:54:25.196Z,18144
2023-02-12T13:55:25.704Z,17696
2023-02-12T13:56:27.889Z,15904
2023-02-12T13:57:26.982Z,13280
2023-02-12T13:58:27.520Z,11736
2023-02-12T13:59:27.993Z,11160
2023-02-12T14:00:28.600Z,10968
2023-02-12T14:01:29.164Z,11100
2023-02-12T14:02:30.146Z,11276
2023-02-12T14:03:30.668Z,11272
2023-02-12T14:04:31.150Z,10920
2023-02-12T14:05:31.664Z,10412
2023-02-12T14:06:32.175Z,9900
2023-02-12T14:07:32.646Z,9372
2023-02-12T14:08:33.183Z,8968
2023-02-12T14:09:33.764Z,8888
2023-02-12T14:10:34.357Z,8908
2023-02-12T14:11:34.860Z,8964
2023-02-12T14:12:36.137Z,8908
2023-02-12T14:13:36.644Z,7900
2023-02-12T14:15:07.754Z,7564
2023-02-12T14:16:08.291Z,7320
2023-02-12T14:17:08.777Z,7152
2023-02-12T14:18:09.230Z,6964
2023-02-12T14:19:10.682Z,6772
2023-02-12T14:20:11.296Z,6600
2023-02-12T14:21:11.725Z,6460
2023-02-12T14:22:12.894Z,6320
2023-02-12T14:23:13.358Z,6184
2023-02-12T14:24:13.870Z,6076
2023-02-12T14:25:14.341Z,6004
2023-02-12T14:26:15.077Z,5992
2023-02-12T14:27:15.561Z,6008
2023-02-12T14:28:16.077Z,6012
2023-02-12T14:29:16.560Z,6032
2023-02-12T14:30:17.099Z,5976
2023-02-12T14:31:17.874Z,5908